Terminal Aerodrome Forecast
Issued by NWS

Home | Current Version | Previous Version | Text Only | Print | Product List | Glossary On
Versions: 1 2 3 4 5 6 7 8 9 10 11 12 13 14 15 16 17
000
FTUS43 KMPX 271124
TAFRNH
TAF
KRNH 271124Z 2712/2812 14004KT P6SM SCT080
     FM271700 18009KT P6SM BKN200
     FM280000 15005KT P6SM SCT060 OVC090
     FM280900 14006KT 4SM -DZ BR OVC007=

USA.gov is the U.S. government's official web portal to all federal, state and local government web resources and services.